Terminal Aerodrome Forecast
Issued by NWS Melbourne, FL

Home | Current Version | Previous Version | Text Only | Print | Product List | Glossary On
Versions: 1 2 3 4 5 6 7 8 9 10 11 12 13 14 15 16 17
986
FTUS42 KMLB 011735
TAFDAB
TAF
KDAB 011735Z 0118/0218 18010KT P6SM FEW035 SCT250
     FM020300 22003KT P6SM SCT040 BKN250
      TEMPO 0209/0213 3SM BR
     FM021400 29008KT P6SM SCT030 BKN080=

USA.gov is the U.S. government's official web portal to all federal, state and local government web resources and services.